createdAt,value
2018-08-13T00:00:39.946Z,0.00
2018-08-13T00:01:39.962Z,0.00
2018-08-13T00:02:39.914Z,0.00
2018-08-13T00:03:39.938Z,0.00
2018-08-13T00:04:39.939Z,0.00
2018-08-13T00:05:39.889Z,0.00
2018-08-13T00:06:39.893Z,0.00
2018-08-13T00:07:39.863Z,0.00
2018-08-13T00:08:39.856Z,0.00
2018-08-13T00:09:39.838Z,0.00
2018-08-13T00:10:39.854Z,0.00
2018-08-13T00:11:39.819Z,0.00
2018-08-13T00:12:39.813Z,0.00
2018-08-13T00:13:39.817Z,0.00
2018-08-13T00:14:39.783Z,0.00
2018-08-13T00:15:39.864Z,0.00
2018-08-13T00:16:39.796Z,0.00
2018-08-13T00:17:39.814Z,0.00
2018-08-13T00:18:39.754Z,0.00
2018-08-13T00:19:39.725Z,0.00
2018-08-13T00:20:39.739Z,0.00
2018-08-13T00:21:39.704Z,0.00
2018-08-13T00:22:39.691Z,0.00
2018-08-13T00:23:39.679Z,0.00
2018-08-13T00:24:39.668Z,0.00
2018-08-13T00:25:39.691Z,0.00
2018-08-13T00:26:39.655Z,0.00
2018-08-13T00:27:39.633Z,0.00
2018-08-13T00:28:39.639Z,0.00
2018-08-13T00:29:40.153Z,0.00
2018-08-13T00:30:39.632Z,0.00
2018-08-13T00:31:39.686Z,0.00
2018-08-13T00:32:39.579Z,0.00
2018-08-13T00:33:39.604Z,0.00
2018-08-13T00:34:39.571Z,0.00
2018-08-13T00:35:39.549Z,0.00
2018-08-13T00:36:39.532Z,0.00
2018-08-13T00:37:39.564Z,0.00
2018-08-13T00:38:39.510Z,0.00
2018-08-13T00:39:39.498Z,0.00
2018-08-13T00:40:39.490Z,0.00
2018-08-13T00:41:39.476Z,0.00
2018-08-13T00:42:39.499Z,0.00
2018-08-13T00:43:39.451Z,0.00
2018-08-13T00:44:39.477Z,0.00
2018-08-13T00:45:39.433Z,0.00
2018-08-13T00:46:39.425Z,0.00
2018-08-13T00:47:39.411Z,0.00
2018-08-13T00:48:39.434Z,0.00
2018-08-13T00:49:39.386Z,0.00
2018-08-13T00:50:39.384Z,0.00
2018-08-13T00:51:39.400Z,0.00
2018-08-13T00:52:39.365Z,0.00
2018-08-13T00:53:40.170Z,0.00
2018-08-13T00:54:39.331Z,0.00
2018-08-13T00:55:40.125Z,0.00
2018-08-13T00:56:39.336Z,0.00
2018-08-13T00:57:39.302Z,0.00
2018-08-13T00:58:39.298Z,0.00
2018-08-13T00:59:39.276Z,0.00
2018-08-13T01:00:39.263Z,0.00
2018-08-13T01:01:39.338Z,0.00
2018-08-13T01:02:39.240Z,0.00
2018-08-13T01:03:39.226Z,0.00
2018-08-13T01:04:39.215Z,0.00
2018-08-13T01:05:39.212Z,0.00
2018-08-13T01:06:39.273Z,0.00
2018-08-13T01:07:39.182Z,0.00
2018-08-13T01:08:39.173Z,0.00
2018-08-13T01:09:39.161Z,0.00
2018-08-13T01:10:39.158Z,0.00
2018-08-13T01:11:39.253Z,0.00
2018-08-13T01:12:39.126Z,0.00
2018-08-13T01:13:39.129Z,0.00
2018-08-13T01:14:39.178Z,0.00
2018-08-13T01:15:39.102Z,0.00
2018-08-13T01:16:39.137Z,0.00
2018-08-13T01:17:39.109Z,0.00
2018-08-13T01:18:39.068Z,0.00
2018-08-13T01:19:39.049Z,0.00
2018-08-13T01:20:39.044Z,0.00
2018-08-13T01:21:39.028Z,0.00
2018-08-13T01:22:39.054Z,0.00
2018-08-13T01:23:39.000Z,0.00
2018-08-13T01:24:38.989Z,0.00
2018-08-13T01:25:38.982Z,0.00
2018-08-13T01:26:38.974Z,0.00
2018-08-13T01:27:38.986Z,0.00
2018-08-13T01:28:38.948Z,0.00
2018-08-13T01:29:38.932Z,0.00
2018-08-13T01:30:39.000Z,0.00
2018-08-13T01:31:38.946Z,0.00
2018-08-13T01:32:38.903Z,0.00
2018-08-13T01:33:38.891Z,0.00
2018-08-13T01:34:38.921Z,0.00
2018-08-13T01:35:38.900Z,0.00
2018-08-13T01:36:38.861Z,0.00
2018-08-13T01:37:38.895Z,0.00
2018-08-13T01:38:38.869Z,0.00
2018-08-13T01:39:38.827Z,0.00
2018-08-13T01:40:38.841Z,0.00
2018-08-13T01:41:38.805Z,0.00
2018-08-13T01:42:38.788Z,0.00
2018-08-13T01:43:38.782Z,0.00
2018-08-13T01:44:38.796Z,0.00
2018-08-13T01:45:38.759Z,0.00
2018-08-13T01:46:38.742Z,0.00
2018-08-13T01:47:38.730Z,0.00
2018-08-13T01:48:38.726Z,0.00
2018-08-13T01:49:38.742Z,0.00
2018-08-13T01:50:38.707Z,0.00
2018-08-13T01:51:38.692Z,0.00
2018-08-13T01:52:38.681Z,0.00
2018-08-13T01:53:38.700Z,0.00
2018-08-13T01:54:38.745Z,0.00
2018-08-13T01:55:38.641Z,0.00
2018-08-13T01:56:38.642Z,0.00
2018-08-13T01:57:38.671Z,0.00
2018-08-13T01:58:38.654Z,0.00
2018-08-13T01:59:38.599Z,0.00
2018-08-13T02:00:38.589Z,0.00
2018-08-13T02:01:38.581Z,0.00
2018-08-13T02:02:38.625Z,0.00
2018-08-13T02:03:38.552Z,0.00
2018-08-13T02:04:38.557Z,0.00
2018-08-13T02:05:38.537Z,0.00
2018-08-13T02:06:38.517Z,0.00
2018-08-13T02:07:38.568Z,0.00
2018-08-13T02:08:38.497Z,0.00
2018-08-13T02:09:38.489Z,0.00
2018-08-13T02:10:38.476Z,0.00
2018-08-13T02:11:38.464Z,0.00
2018-08-13T02:12:38.483Z,0.00
2018-08-13T02:13:38.508Z,0.00
2018-08-13T02:14:38.466Z,0.00
2018-08-13T02:15:38.461Z,0.00
2018-08-13T02:16:38.439Z,0.00
2018-08-13T02:17:38.398Z,0.00
2018-08-13T02:18:38.414Z,0.00
2018-08-13T02:19:38.388Z,0.00
2018-08-13T02:20:38.366Z,0.00
2018-08-13T02:21:38.406Z,0.00
2018-08-13T02:22:38.342Z,0.00
2018-08-13T02:23:38.332Z,0.00
2018-08-13T02:24:38.323Z,0.00
2018-08-13T02:25:38.311Z,0.00
2018-08-13T02:26:38.341Z,0.00
2018-08-13T02:27:38.287Z,0.00
2018-08-13T02:28:38.275Z,0.00
2018-08-13T02:29:38.261Z,0.00
2018-08-13T02:30:38.262Z,0.00
2018-08-13T02:31:38.378Z,0.00
2018-08-13T02:32:38.228Z,0.00
2018-08-13T02:33:38.217Z,0.00
2018-08-13T02:34:38.217Z,0.00
2018-08-13T02:35:38.197Z,0.00
2018-08-13T02:36:38.243Z,0.00
2018-08-13T02:37:38.259Z,0.00
2018-08-13T02:38:38.159Z,0.00
2018-08-13T02:39:38.153Z,0.00
2018-08-13T02:40:38.150Z,0.00
2018-08-13T02:41:38.187Z,0.00
2018-08-13T02:42:38.123Z,0.00
2018-08-13T02:43:38.105Z,0.00
2018-08-13T02:44:38.097Z,0.00
2018-08-13T02:45:38.093Z,0.00
2018-08-13T02:46:38.099Z,0.00
2018-08-13T02:47:38.060Z,0.00
2018-08-13T02:48:38.065Z,0.00
2018-08-13T02:49:38.037Z,0.00
2018-08-13T02:50:38.052Z,0.00
2018-08-13T02:51:38.016Z,0.00
2018-08-13T02:52:38.001Z,0.00
2018-08-13T02:53:38.080Z,0.00
2018-08-13T02:54:37.979Z,0.00
2018-08-13T02:55:38.003Z,0.00
2018-08-13T02:56:37.962Z,0.00
2018-08-13T02:57:37.956Z,0.00
2018-08-13T02:58:37.960Z,0.00
2018-08-13T02:59:37.939Z,0.00
2018-08-13T03:00:37.963Z,0.00
2018-08-13T03:01:37.946Z,0.00
2018-08-13T03:02:37.892Z,0.00
2018-08-13T03:03:37.884Z,0.00
2018-08-13T03:04:38.026Z,0.00
2018-08-13T03:05:37.872Z,0.00
2018-08-13T03:06:37.975Z,0.00
2018-08-13T03:07:37.838Z,0.00
2018-08-13T03:08:37.826Z,0.00
2018-08-13T03:09:37.853Z,0.00
2018-08-13T03:10:37.802Z,0.00
2018-08-13T03:11:37.795Z,0.00
2018-08-13T03:12:37.778Z,0.00
2018-08-13T03:13:37.766Z,0.00
2018-08-13T03:14:37.791Z,0.00
2018-08-13T03:15:37.747Z,0.00
2018-08-13T03:16:37.765Z,0.00
2018-08-13T03:17:37.720Z,0.00
2018-08-13T03:18:37.748Z,0.00
2018-08-13T03:19:37.702Z,0.00
2018-08-13T03:20:37.700Z,0.00
2018-08-13T03:21:37.685Z,0.00
2018-08-13T03:22:37.701Z,0.00
2018-08-13T03:23:37.659Z,0.00
2018-08-13T03:24:37.640Z,0.00
2018-08-13T03:25:37.629Z,0.00
2018-08-13T03:26:37.619Z,0.00
2018-08-13T03:27:37.647Z,0.00
2018-08-13T03:28:37.594Z,0.00
2018-08-13T03:29:37.592Z,0.00
2018-08-13T03:30:37.664Z,0.00
2018-08-13T03:31:37.565Z,0.00
2018-08-13T03:32:37.596Z,0.00
2018-08-13T03:33:37.731Z,0.00
2018-08-13T03:34:37.533Z,0.00
2018-08-13T03:35:37.520Z,0.00
2018-08-13T03:36:37.544Z,0.00
2018-08-13T03:37:37.528Z,0.00
2018-08-13T03:38:37.493Z,0.00
2018-08-13T03:39:37.511Z,0.00
2018-08-13T03:40:37.464Z,0.00
2018-08-13T03:41:37.454Z,0.00
2018-08-13T03:42:37.444Z,0.00
2018-08-13T03:43:37.433Z,0.00
2018-08-13T03:44:37.449Z,0.00
2018-08-13T03:45:37.407Z,0.00
2018-08-13T03:46:37.476Z,0.00
2018-08-13T03:47:37.384Z,0.00
2018-08-13T03:48:37.419Z,0.00
2018-08-13T03:49:37.366Z,0.00
2018-08-13T03:50:37.388Z,0.00
2018-08-13T03:51:37.376Z,0.00
2018-08-13T03:52:37.332Z,0.00
2018-08-13T03:53:37.355Z,0.00
2018-08-13T03:54:37.303Z,4.00
2018-08-13T03:55:37.335Z,4.00
2018-08-13T03:56:37.288Z,0.00
2018-08-13T03:57:37.269Z,0.00
2018-08-13T03:58:37.266Z,4.00
2018-08-13T03:59:37.251Z,4.00
2018-08-13T04:00:37.270Z,4.00
2018-08-13T04:01:37.261Z,4.00
2018-08-13T04:02:37.226Z,4.00
2018-08-13T04:03:37.203Z,4.00
2018-08-13T04:04:37.201Z,4.00
2018-08-13T04:05:37.262Z,4.00
2018-08-13T04:06:37.190Z,4.00
2018-08-13T04:07:37.189Z,4.00
2018-08-13T04:08:37.146Z,4.00
2018-08-13T04:09:37.137Z,4.00
2018-08-13T04:10:37.165Z,8.00
2018-08-13T04:11:37.117Z,8.00
2018-08-13T04:12:37.101Z,8.00
2018-08-13T04:13:37.138Z,8.00
2018-08-13T04:14:37.083Z,8.00
2018-08-13T04:15:37.104Z,12.00
2018-08-13T04:16:37.061Z,16.00
2018-08-13T04:17:37.051Z,16.00
2018-08-13T04:18:37.037Z,16.00
2018-08-13T04:19:37.044Z,16.00
2018-08-13T04:20:37.054Z,20.00
2018-08-13T04:21:37.003Z,20.00
2018-08-13T04:22:37.005Z,20.00
2018-08-13T04:23:37.066Z,24.00
2018-08-13T04:24:36.973Z,24.00
2018-08-13T04:25:37.006Z,28.00
2018-08-13T04:26:36.956Z,28.00
2018-08-13T04:27:36.939Z,32.00
2018-08-13T04:28:36.938Z,36.00
2018-08-13T04:29:36.942Z,40.00
2018-08-13T04:30:36.952Z,44.00
2018-08-13T04:31:36.890Z,48.00
2018-08-13T04:32:36.907Z,52.00
2018-08-13T04:33:36.897Z,56.00
2018-08-13T04:34:36.862Z,60.00
2018-08-13T04:35:36.850Z,64.00
2018-08-13T04:36:36.836Z,72.00
2018-08-13T04:37:36.827Z,72.00
2018-08-13T04:38:36.856Z,72.00
2018-08-13T04:39:36.804Z,72.00
2018-08-13T04:40:36.792Z,72.00
2018-08-13T04:41:36.780Z,76.00
2018-08-13T04:42:36.769Z,80.00
2018-08-13T04:43:36.788Z,88.00
2018-08-13T04:44:36.747Z,92.00
2018-08-13T04:45:36.836Z,96.00
2018-08-13T04:46:36.727Z,100.00
2018-08-13T04:47:36.718Z,104.00
2018-08-13T04:48:36.702Z,112.00
2018-08-13T04:49:36.735Z,116.00
2018-08-13T04:50:36.682Z,116.00
2018-08-13T04:51:36.672Z,124.00
2018-08-13T04:52:36.658Z,124.00
2018-08-13T04:53:36.646Z,128.00
2018-08-13T04:54:36.672Z,132.00
2018-08-13T04:55:36.628Z,132.00
2018-08-13T04:56:36.615Z,132.00
2018-08-13T04:57:36.608Z,132.00
2018-08-13T04:58:36.593Z,140.00
2018-08-13T04:59:36.615Z,148.00
2018-08-13T05:00:36.599Z,160.00
2018-08-13T05:01:36.558Z,176.00
2018-08-13T05:02:36.555Z,208.00
2018-08-13T05:03:36.533Z,240.00
2018-08-13T05:04:36.529Z,284.00
2018-08-13T05:05:36.555Z,340.00
2018-08-13T05:06:36.503Z,380.00
2018-08-13T05:07:36.493Z,392.00
2018-08-13T05:08:36.522Z,364.00
2018-08-13T05:09:36.537Z,348.00
2018-08-13T05:10:36.462Z,336.00
2018-08-13T05:11:36.543Z,332.00
2018-08-13T05:12:36.443Z,320.00
2018-08-13T05:13:36.420Z,300.00
2018-08-13T05:14:36.447Z,260.00
2018-08-13T05:15:36.403Z,244.00
2018-08-13T05:16:36.391Z,248.00
2018-08-13T05:17:36.384Z,256.00
2018-08-13T05:18:36.368Z,256.00
2018-08-13T05:19:36.390Z,260.00
2018-08-13T05:20:36.345Z,272.00
2018-08-13T05:21:36.333Z,284.00
2018-08-13T05:22:36.326Z,296.00
2018-08-13T05:23:36.312Z,304.00
2018-08-13T05:24:36.333Z,320.00
2018-08-13T05:25:36.368Z,348.00
2018-08-13T05:26:36.279Z,376.00
2018-08-13T05:27:36.302Z,380.00
2018-08-13T05:28:36.253Z,340.00
2018-08-13T05:29:36.286Z,304.00
2018-08-13T05:30:36.229Z,288.00
2018-08-13T05:31:36.219Z,280.00
2018-08-13T05:32:36.207Z,264.00
2018-08-13T05:33:36.205Z,232.00
2018-08-13T05:34:36.216Z,204.00
2018-08-13T05:35:36.209Z,192.00
2018-08-13T05:36:36.166Z,204.00
2018-08-13T05:37:36.155Z,212.00
2018-08-13T05:38:36.177Z,204.00
2018-08-13T05:39:36.163Z,196.00
2018-08-13T05:40:36.125Z,208.00
2018-08-13T05:41:36.120Z,224.00
2018-08-13T05:42:36.107Z,228.00
2018-08-13T05:43:36.086Z,212.00
2018-08-13T05:44:36.110Z,212.00
2018-08-13T05:45:36.070Z,220.00
2018-08-13T05:46:36.055Z,216.00
2018-08-13T05:47:36.039Z,204.00
2018-08-13T05:48:36.062Z,208.00
2018-08-13T05:49:36.704Z,240.00
2018-08-13T05:50:36.043Z,296.00
2018-08-13T05:51:36.005Z,340.00
2018-08-13T05:52:36.024Z,356.00
2018-08-13T05:53:35.978Z,336.00
2018-08-13T05:54:35.967Z,292.00
2018-08-13T05:55:35.989Z,236.00
2018-08-13T05:56:35.944Z,184.00
2018-08-13T05:57:35.931Z,152.00
2018-08-13T05:58:35.926Z,156.00
2018-08-13T05:59:35.942Z,204.00
2018-08-13T06:00:35.905Z,272.00
2018-08-13T06:01:35.885Z,304.00
2018-08-13T06:02:35.879Z,300.00
2018-08-13T06:03:35.905Z,320.00
2018-08-13T06:04:35.866Z,364.00
2018-08-13T06:05:35.896Z,384.00
2018-08-13T06:06:35.830Z,364.00
2018-08-13T06:07:35.820Z,328.00
2018-08-13T06:08:35.813Z,304.00
2018-08-13T06:09:35.805Z,324.00
2018-08-13T06:10:35.823Z,360.00
2018-08-13T06:11:36.822Z,368.00
2018-08-13T06:12:35.767Z,388.00
2018-08-13T06:13:35.767Z,408.00
2018-08-13T06:14:35.747Z,428.00
2018-08-13T06:15:35.775Z,448.00
2018-08-13T06:16:35.746Z,480.00
2018-08-13T06:17:35.715Z,524.00
2018-08-13T06:18:35.701Z,576.00
2018-08-13T06:19:35.687Z,624.00
2018-08-13T06:20:35.704Z,684.00
2018-08-13T06:21:35.708Z,736.00
2018-08-13T06:22:35.653Z,784.00
2018-08-13T06:23:35.645Z,828.00
2018-08-13T06:24:35.675Z,852.00
2018-08-13T06:25:35.621Z,872.00
2018-08-13T06:26:35.610Z,944.00
2018-08-13T06:27:35.629Z,1060.00
2018-08-13T06:28:35.588Z,1208.00
2018-08-13T06:29:35.611Z,1480.00
2018-08-13T06:30:35.599Z,1792.00
2018-08-13T06:31:35.559Z,1968.00
2018-08-13T06:32:35.601Z,2052.00
2018-08-13T06:33:35.530Z,2108.00
2018-08-13T06:34:35.525Z,2148.00
2018-08-13T06:35:35.512Z,2240.00
2018-08-13T06:36:35.499Z,2376.00
2018-08-13T06:37:35.544Z,2580.00
2018-08-13T06:38:35.477Z,2660.00
2018-08-13T06:39:35.467Z,2580.00
2018-08-13T06:40:35.450Z,2376.00
2018-08-13T06:41:35.444Z,2172.00
2018-08-13T06:42:35.468Z,2352.00
2018-08-13T06:43:35.454Z,2544.00
2018-08-13T06:44:35.409Z,2564.00
2018-08-13T06:45:36.213Z,2544.00
2018-08-13T06:46:35.388Z,2536.00
2018-08-13T06:47:35.383Z,2544.00
2018-08-13T06:48:35.409Z,2584.00
2018-08-13T06:49:35.352Z,2628.00
2018-08-13T06:50:35.339Z,2684.00
2018-08-13T06:51:35.343Z,2720.00
2018-08-13T06:52:36.256Z,2728.00
2018-08-13T06:53:35.340Z,2720.00
2018-08-13T06:54:35.293Z,2744.00
2018-08-13T06:55:35.338Z,2776.00
2018-08-13T06:56:35.278Z,2824.00
2018-08-13T06:57:35.314Z,2864.00
2018-08-13T06:58:35.255Z,2880.00
2018-08-13T06:59:35.249Z,2904.00
2018-08-13T07:00:35.254Z,2932.00
2018-08-13T07:01:35.222Z,2944.00
2018-08-13T07:02:35.217Z,2952.00
2018-08-13T07:03:35.261Z,2980.00
2018-08-13T07:04:35.288Z,3040.00
2018-08-13T07:05:35.194Z,3096.00
2018-08-13T07:06:35.162Z,3132.00
2018-08-13T07:07:35.161Z,3124.00
2018-08-13T07:08:35.179Z,3060.00
2018-08-13T07:09:35.137Z,2968.00
2018-08-13T07:10:35.733Z,2884.00
2018-08-13T07:11:35.213Z,2824.00
2018-08-13T07:12:35.095Z,2784.00
2018-08-13T07:13:35.114Z,2768.00
2018-08-13T07:14:35.076Z,2796.00
2018-08-13T07:15:35.771Z,2832.00
2018-08-13T07:16:35.056Z,2860.00
2018-08-13T07:17:35.075Z,2848.00
2018-08-13T07:18:35.025Z,2832.00
2018-08-13T07:19:35.026Z,2820.00
2018-08-13T07:20:35.017Z,2844.00
2018-08-13T07:21:35.041Z,2904.00
2018-08-13T07:22:35.010Z,3004.00
2018-08-13T07:23:34.977Z,3120.00
2018-08-13T07:24:42.018Z,3184.00
2018-08-13T07:25:34.989Z,3164.00
2018-08-13T07:26:34.946Z,3020.00
2018-08-13T07:27:34.937Z,2848.00
2018-08-13T07:28:34.935Z,2860.00
2018-08-13T07:29:34.907Z,2768.00
2018-08-13T07:30:34.919Z,2716.00
2018-08-13T07:31:34.902Z,2824.00
2018-08-13T07:32:34.872Z,2924.00
2018-08-13T07:33:34.891Z,2932.00
2018-08-13T07:34:34.885Z,2928.00
2018-08-13T07:35:34.835Z,2988.00
2018-08-13T07:36:34.824Z,3016.00
2018-08-13T07:37:34.816Z,3048.00
2018-08-13T07:38:34.806Z,3088.00
2018-08-13T07:39:34.820Z,3128.00
2018-08-13T07:40:34.782Z,3172.00
2018-08-13T07:41:34.773Z,3208.00
2018-08-13T07:42:34.767Z,3240.00
2018-08-13T07:43:34.799Z,3276.00
2018-08-13T07:44:34.829Z,3312.00
2018-08-13T07:45:34.749Z,3316.00
2018-08-13T07:46:34.788Z,3308.00
2018-08-13T07:47:34.718Z,3304.00
2018-08-13T07:48:34.744Z,3280.00
2018-08-13T07:49:34.682Z,3208.00
2018-08-13T07:50:34.670Z,3044.00
2018-08-13T07:51:34.663Z,3096.00
2018-08-13T07:52:34.650Z,3096.00
2018-08-13T07:53:34.674Z,3036.00
2018-08-13T07:54:35.286Z,2996.00
2018-08-13T07:55:34.608Z,2896.00
2018-08-13T07:56:34.611Z,2836.00
2018-08-13T07:57:34.621Z,2840.00
2018-08-13T07:58:34.587Z,2956.00
2018-08-13T07:59:34.582Z,3112.00
2018-08-13T08:00:34.555Z,3396.00
2018-08-13T08:01:34.543Z,3600.00
2018-08-13T08:02:34.560Z,3728.00
2018-08-13T08:03:34.538Z,3808.00
2018-08-13T08:04:34.515Z,3860.00
2018-08-13T08:05:34.530Z,3908.00
2018-08-13T08:06:34.486Z,3892.00
2018-08-13T08:07:34.579Z,3840.00
2018-08-13T08:08:34.468Z,3808.00
2018-08-13T08:09:34.458Z,3928.00
2018-08-13T08:10:34.439Z,3988.00
2018-08-13T08:11:34.434Z,3836.00
2018-08-13T08:12:34.452Z,3732.00
2018-08-13T08:13:34.414Z,3696.00
2018-08-13T08:14:34.416Z,3848.00
2018-08-13T08:15:34.421Z,4004.00
2018-08-13T08:16:34.379Z,4132.00
2018-08-13T08:17:34.417Z,4280.00
2018-08-13T08:18:34.361Z,4428.00
2018-08-13T08:19:34.346Z,4532.00
2018-08-13T08:20:34.343Z,4580.00
2018-08-13T08:21:34.320Z,4544.00
2018-08-13T08:22:34.342Z,4424.00
2018-08-13T08:23:34.295Z,4336.00
2018-08-13T08:24:35.252Z,4192.00
2018-08-13T08:25:34.285Z,3960.00
2018-08-13T08:26:34.568Z,3572.00
2018-08-13T08:27:34.312Z,3328.00
2018-08-13T08:28:34.241Z,3272.00
2018-08-13T08:29:34.226Z,3144.00
2018-08-13T08:30:34.246Z,2880.00
2018-08-13T08:31:34.216Z,2372.00
2018-08-13T08:32:34.199Z,1876.00
2018-08-13T08:33:34.185Z,1588.00
2018-08-13T08:34:34.191Z,1408.00
2018-08-13T08:35:34.188Z,1248.00
2018-08-13T08:36:34.152Z,1208.00
2018-08-13T08:37:34.150Z,1168.00
2018-08-13T08:38:34.137Z,1104.00
2018-08-13T08:39:34.153Z,1124.00
2018-08-13T08:40:34.141Z,1080.00
2018-08-13T08:41:34.096Z,764.00
2018-08-13T08:42:34.123Z,700.00
2018-08-13T08:43:34.076Z,844.00
2018-08-13T08:44:34.065Z,1200.00
2018-08-13T08:45:34.063Z,1544.00
2018-08-13T08:46:34.043Z,1720.00
2018-08-13T08:47:34.061Z,1896.00
2018-08-13T08:48:34.026Z,1960.00
2018-08-13T08:49:34.060Z,1812.00
2018-08-13T08:50:34.005Z,1716.00
2018-08-13T08:51:33.978Z,2196.00
2018-08-13T08:52:33.977Z,2660.00
2018-08-13T08:53:33.985Z,2872.00
2018-08-13T08:54:34.001Z,3464.00
2018-08-13T08:55:33.944Z,4652.00
2018-08-13T08:56:33.961Z,4784.00
2018-08-13T08:57:33.924Z,5316.00
2018-08-13T08:58:33.904Z,4048.00
2018-08-13T08:59:33.916Z,2808.00
2018-08-13T09:00:33.882Z,2684.00
2018-08-13T09:01:33.905Z,2960.00
2018-08-13T09:02:33.873Z,2876.00
2018-08-13T09:03:33.847Z,3608.00
2018-08-13T09:04:33.868Z,4184.00
2018-08-13T09:05:33.828Z,4160.00
2018-08-13T09:06:33.850Z,4184.00
2018-08-13T09:07:33.839Z,3860.00
2018-08-13T09:08:33.836Z,4656.00
2018-08-13T09:09:33.791Z,5516.00
2018-08-13T09:10:33.772Z,4516.00
2018-08-13T09:11:33.787Z,3188.00
2018-08-13T09:12:33.752Z,3128.00
2018-08-13T09:13:33.766Z,3736.00
2018-08-13T09:14:33.731Z,3492.00
2018-08-13T09:15:33.717Z,3988.00
2018-08-13T09:16:33.712Z,4560.00
2018-08-13T09:17:33.690Z,3624.00
2018-08-13T09:18:33.714Z,3628.00
2018-08-13T09:19:33.665Z,3500.00
2018-08-13T09:20:33.719Z,3920.00
2018-08-13T09:21:33.651Z,4552.00
2018-08-13T09:22:33.657Z,5388.00
2018-08-13T09:23:34.269Z,5252.00
2018-08-13T09:24:33.614Z,5276.00
2018-08-13T09:25:33.616Z,4656.00
2018-08-13T09:26:33.591Z,4052.00
2018-08-13T09:27:33.613Z,5180.00
2018-08-13T09:28:33.573Z,5712.00
2018-08-13T09:29:33.563Z,5880.00
2018-08-13T09:30:33.548Z,4908.00
2018-08-13T09:31:33.539Z,4768.00
2018-08-13T09:32:33.565Z,5048.00
2018-08-13T09:33:33.516Z,6012.00
2018-08-13T09:34:33.514Z,4992.00
2018-08-13T09:35:33.492Z,4724.00
2018-08-13T09:36:33.498Z,5124.00
2018-08-13T09:37:33.497Z,4720.00
2018-08-13T09:38:33.467Z,4360.00
2018-08-13T09:39:33.542Z,4044.00
2018-08-13T09:40:33.438Z,3908.00
2018-08-13T09:41:33.428Z,4068.00
2018-08-13T09:42:33.493Z,4760.00
2018-08-13T09:43:33.410Z,5624.00
2018-08-13T09:44:33.400Z,4868.00
2018-08-13T09:45:33.385Z,4576.00
2018-08-13T09:46:33.400Z,4936.00
2018-08-13T09:47:33.391Z,5260.00
2018-08-13T09:48:33.350Z,4504.00
2018-08-13T09:49:33.388Z,4072.00
2018-08-13T09:50:33.340Z,3568.00
2018-08-13T09:51:33.323Z,3572.00
2018-08-13T09:52:33.306Z,3512.00
2018-08-13T09:53:33.351Z,3728.00
2018-08-13T09:54:33.282Z,4192.00
2018-08-13T09:55:33.273Z,4332.00
2018-08-13T09:56:33.296Z,3612.00
2018-08-13T09:57:33.262Z,3320.00
2018-08-13T09:58:33.235Z,4068.00
2018-08-13T09:59:33.298Z,3616.00
2018-08-13T10:00:33.315Z,4808.00
2018-08-13T10:01:33.231Z,5212.00
2018-08-13T10:02:33.200Z,4352.00
2018-08-13T10:03:33.199Z,4872.00
2018-08-13T10:04:33.187Z,4860.00
2018-08-13T10:05:33.172Z,4952.00
2018-08-13T10:06:33.192Z,6092.00
2018-08-13T10:07:33.183Z,6956.00
2018-08-13T10:08:33.125Z,8576.00
2018-08-13T10:09:33.245Z,8472.00
2018-08-13T10:10:33.142Z,8396.00
2018-08-13T10:11:33.125Z,8588.00
2018-08-13T10:12:33.092Z,8456.00
2018-08-13T10:13:33.078Z,8564.00
2018-08-13T10:14:33.084Z,6672.00
2018-08-13T10:15:33.044Z,4712.00
2018-08-13T10:16:33.129Z,3720.00
2018-08-13T10:17:33.080Z,3964.00
2018-08-13T10:18:33.024Z,3684.00
2018-08-13T10:19:33.006Z,3944.00
2018-08-13T10:20:32.995Z,4088.00
2018-08-13T10:21:33.019Z,4112.00
2018-08-13T10:22:32.964Z,4408.00
2018-08-13T10:23:33.020Z,5468.00
2018-08-13T10:24:32.944Z,6216.00
2018-08-13T10:25:32.955Z,6632.00
2018-08-13T10:26:32.969Z,7652.00
2018-08-13T10:27:32.939Z,7560.00
2018-08-13T10:28:32.899Z,7912.00
2018-08-13T10:29:32.931Z,7872.00
2018-08-13T10:30:32.915Z,8392.00
2018-08-13T10:31:32.878Z,8368.00
2018-08-13T10:32:32.888Z,7016.00
2018-08-13T10:33:32.862Z,6000.00
2018-08-13T10:34:32.835Z,5448.00
2018-08-13T10:35:32.853Z,5164.00
2018-08-13T10:36:32.840Z,4860.00
2018-08-13T10:37:32.920Z,4604.00
2018-08-13T10:38:32.791Z,4508.00
2018-08-13T10:39:32.776Z,4996.00
2018-08-13T10:40:32.768Z,4908.00
2018-08-13T10:41:32.754Z,4600.00
2018-08-13T10:42:32.779Z,4300.00
2018-08-13T10:43:32.824Z,4212.00
2018-08-13T10:44:32.729Z,3896.00
2018-08-13T10:45:32.713Z,4144.00
2018-08-13T10:46:32.700Z,4408.00
2018-08-13T10:47:32.722Z,4952.00
2018-08-13T10:48:32.705Z,5344.00
2018-08-13T10:49:32.679Z,5192.00
2018-08-13T10:50:32.652Z,5388.00
2018-08-13T10:51:32.643Z,6064.00
2018-08-13T10:52:32.637Z,6740.00
2018-08-13T10:53:32.675Z,7936.00
2018-08-13T10:54:32.627Z,9040.00
2018-08-13T10:55:32.607Z,9028.00
2018-08-13T10:56:32.590Z,8564.00
2018-08-13T10:57:32.580Z,8372.00
2018-08-13T10:58:32.642Z,7320.00
2018-08-13T10:59:32.563Z,6708.00
2018-08-13T11:00:32.547Z,6276.00
2018-08-13T11:01:32.541Z,5448.00
2018-08-13T11:02:32.531Z,5012.00
2018-08-13T11:03:32.545Z,4668.00
2018-08-13T11:04:32.510Z,4872.00
2018-08-13T11:05:32.528Z,5176.00
2018-08-13T11:06:32.483Z,5408.00
2018-08-13T11:07:32.485Z,5128.00
2018-08-13T11:08:32.475Z,4644.00
2018-08-13T11:09:32.450Z,5316.00
2018-08-13T11:10:32.453Z,5872.00
2018-08-13T11:11:32.478Z,5744.00
2018-08-13T11:12:32.425Z,5492.00
2018-08-13T11:13:32.453Z,5100.00
2018-08-13T11:14:32.444Z,4780.00
2018-08-13T11:15:32.402Z,4000.00
2018-08-13T11:16:32.367Z,3996.00
2018-08-13T11:17:32.356Z,4472.00
2018-08-13T11:18:32.346Z,4212.00
2018-08-13T11:19:32.368Z,4128.00
2018-08-13T11:20:32.329Z,3900.00
2018-08-13T11:21:32.346Z,3004.00
2018-08-13T11:22:32.308Z,2928.00
2018-08-13T11:23:32.344Z,3672.00
2018-08-13T11:24:32.280Z,4304.00
2018-08-13T11:25:32.271Z,4180.00
2018-08-13T11:26:32.262Z,3884.00
2018-08-13T11:27:32.252Z,3988.00
2018-08-13T11:28:32.324Z,3744.00
2018-08-13T11:29:32.230Z,3956.00
2018-08-13T11:30:32.223Z,4560.00
2018-08-13T11:31:32.213Z,6008.00
2018-08-13T11:32:32.195Z,8100.00
2018-08-13T11:33:32.212Z,9088.00
2018-08-13T11:34:32.179Z,10016.00
2018-08-13T11:35:32.167Z,9880.00
2018-08-13T11:36:32.150Z,9588.00
2018-08-13T11:37:32.189Z,8132.00
2018-08-13T11:38:32.135Z,7012.00
2018-08-13T11:39:32.146Z,6512.00
2018-08-13T11:40:32.135Z,6736.00
2018-08-13T11:41:32.094Z,6516.00
2018-08-13T11:42:32.113Z,5304.00
2018-08-13T11:43:32.072Z,4588.00
2018-08-13T11:44:32.068Z,4624.00
2018-08-13T11:45:32.069Z,5248.00
2018-08-13T11:46:32.064Z,5764.00
2018-08-13T11:47:32.063Z,4512.00
2018-08-13T11:48:32.016Z,3596.00
2018-08-13T11:49:32.011Z,3692.00
2018-08-13T11:50:31.992Z,3972.00
2018-08-13T11:51:31.985Z,3972.00
2018-08-13T11:52:32.059Z,4032.00
2018-08-13T11:53:31.972Z,4276.00
2018-08-13T11:54:31.996Z,4600.00
2018-08-13T11:55:31.950Z,4184.00
2018-08-13T11:56:31.996Z,5164.00
2018-08-13T11:57:31.918Z,4584.00
2018-08-13T11:58:31.905Z,4524.00
2018-08-13T11:59:31.931Z,4368.00
2018-08-13T12:00:31.920Z,4220.00
2018-08-13T12:01:31.881Z,3776.00
2018-08-13T12:02:31.871Z,3684.00
2018-08-13T12:03:31.857Z,3644.00
2018-08-13T12:04:31.840Z,3632.00
2018-08-13T12:05:31.863Z,3144.00
2018-08-13T12:06:31.823Z,2660.00
2018-08-13T12:07:31.810Z,2408.00
2018-08-13T12:08:31.864Z,2200.00
2018-08-13T12:09:31.811Z,1964.00
2018-08-13T12:10:31.814Z,1760.00
2018-08-13T12:11:31.772Z,1576.00
2018-08-13T12:12:31.757Z,1064.00
2018-08-13T12:13:31.747Z,816.00
2018-08-13T12:14:31.731Z,708.00
2018-08-13T12:15:31.762Z,608.00
2018-08-13T12:16:31.722Z,624.00
2018-08-13T12:17:31.696Z,716.00
2018-08-13T12:18:31.691Z,1012.00
2018-08-13T12:19:31.732Z,1468.00
2018-08-13T12:20:31.722Z,1792.00
2018-08-13T12:21:31.680Z,1844.00
2018-08-13T12:22:32.334Z,1692.00
2018-08-13T12:23:31.629Z,1388.00
2018-08-13T12:24:31.624Z,1576.00
2018-08-13T12:25:31.647Z,1804.00
2018-08-13T12:26:31.694Z,2108.00
2018-08-13T12:27:31.655Z,2652.00
2018-08-13T12:28:31.584Z,3840.00
2018-08-13T12:29:31.575Z,5128.00
2018-08-13T12:30:31.553Z,6640.00
2018-08-13T12:31:31.541Z,7156.00
2018-08-13T12:32:31.696Z,6520.00
2018-08-13T12:33:31.523Z,5120.00
2018-08-13T12:34:31.550Z,3980.00